Time;durP1;ratioP1;P1;durP2;ratioP2;P2;SDS_P1;SDS_P2;PMS_P1;PMS_P2;Temp;Humidity;BMP_temperature;BMP_pressure;BME280_temperature;BME280_humidity;BME280_pressure;Samples;Min_cycle;Max_cycle;Signal;HPM_P1;HPM_P2
2022/05/03 00:02:17;;;;;;;7.75;6.95;;;;;;;;;;5004723;28;20473;-76
2022/05/03 00:04:52;;;;;;;8.50;7.55;;;;;;;;;;5018418;28;20051;-76
2022/05/03 00:07:28;;;;;;;8.93;6.95;;;;;;;;;;5001265;28;20036;-76
2022/05/03 00:10:00;;;;;;;7.25;6.55;;;;;;;;;;5001714;28;20382;-76
2022/05/03 00:12:33;;;;;;;9.18;7.45;;;;;;;;;;5020845;28;20041;-75
2022/05/03 00:15:00;;;;;;;14.88;7.75;;;;;;;;;;5019113;28;20758;-77
2022/05/03 00:17:27;;;;;;;9.30;7.85;;;;;;;;;;4999836;28;20053;-75
2022/05/03 00:19:53;;;;;;;9.23;7.78;;;;;;;;;;5019196;28;20088;-76
2022/05/03 00:22:19;;;;;;;8.32;7.53;;;;;;;;;;5018739;28;20136;-76
2022/05/03 00:24:46;;;;;;;7.45;6.75;;;;;;;;;;5004227;28;20033;-80
2022/05/03 00:27:12;;;;;;;8.55;7.55;;;;;;;;;;5019596;28;20052;-76
2022/05/03 00:29:39;;;;;;;7.78;6.97;;;;;;;;;;5002164;28;20133;-75
2022/05/03 00:32:05;;;;;;;8.02;6.65;;;;;;;;;;4985756;28;20117;-76
2022/05/03 00:34:33;;;;;;;8.18;7.28;;;;;;;;;;5020432;28;20041;-78
2022/05/03 00:36:59;;;;;;;9.82;6.80;;;;;;;;;;5003567;28;20544;-75
2022/05/03 00:39:25;;;;;;;9.95;6.95;;;;;;;;;;5019413;28;20095;-77
2022/05/03 00:42:00;;;;;;;8.45;7.38;;;;;;;;;;5019835;28;20524;-76
2022/05/03 00:47:28;;;;;;;11.82;7.32;;;;;;;;;;5016202;28;20917;-76
2022/05/03 00:49:57;;;;;;;8.50;7.60;;;;;;;;;;5020009;28;20887;-77
2022/05/03 00:52:25;;;;;;;9.85;7.53;;;;;;;;;;4996035;28;20049;-76
2022/05/03 00:55:14;;;;;;;10.63;7.85;;;;;;;;;;5019573;28;20501;-80
2022/05/03 00:57:59;;;;;;;10.48;7.90;;;;;;;;;;4957097;28;20088;-76
2022/05/03 01:00:26;;;;;;;9.95;7.93;;;;;;;;;;5016271;28;20045;-75
2022/05/03 01:02:58;;;;;;;11.18;7.57;;;;;;;;;;5016303;28;20129;-76
2022/05/03 01:05:29;;;;;;;10.75;7.53;;;;;;;;;;4997774;28;20099;-76
2022/05/03 01:08:05;;;;;;;9.00;7.68;;;;;;;;;;5019218;28;20053;-76
2022/05/03 01:10:39;;;;;;;8.77;7.90;;;;;;;;;;5017722;28;20443;-77
2022/05/03 01:13:29;;;;;;;8.90;7.60;;;;;;;;;;5018501;28;20049;-80
2022/05/03 01:16:06;;;;;;;9.55;8.05;;;;;;;;;;5021040;28;20467;-76
2022/05/03 01:18:45;;;;;;;10.68;7.68;;;;;;;;;;5018160;28;20053;-74
2022/05/03 01:21:30;;;;;;;10.68;6.93;;;;;;;;;;5017877;28;20073;-77
2022/05/03 01:24:11;;;;;;;9.43;7.47;;;;;;;;;;5018454;28;20589;-78
2022/05/03 01:26:43;;;;;;;9.02;7.18;;;;;;;;;;4999663;28;20304;-81
2022/05/03 01:29:19;;;;;;;11.32;8.18;;;;;;;;;;4997815;28;20409;-76
2022/05/03 01:31:45;;;;;;;9.98;7.55;;;;;;;;;;4999325;28;20049;-76
2022/05/03 01:34:13;;;;;;;10.57;8.13;;;;;;;;;;5000118;28;20619;-76
2022/05/03 01:36:39;;;;;;;8.82;7.53;;;;;;;;;;5018163;28;20042;-77
2022/05/03 01:39:11;;;;;;;9.25;8.10;;;;;;;;;;5017315;28;20049;-77
2022/05/03 01:41:42;;;;;;;11.50;8.02;;;;;;;;;;5019063;28;20041;-77
2022/05/03 01:44:10;;;;;;;9.88;8.20;;;;;;;;;;5000166;28;20042;-76
2022/05/03 01:46:37;;;;;;;8.80;7.82;;;;;;;;;;5013935;28;20520;-75
2022/05/03 01:51:54;;;;;;;7.97;6.95;;;;;;;;;;5018772;28;20631;-76
2022/05/03 01:54:29;;;;;;;9.02;7.35;;;;;;;;;;5000426;28;20103;-76
2022/05/03 01:57:23;;;;;;;9.18;7.35;;;;;;;;;;5000167;28;20071;-76
2022/05/03 02:00:03;;;;;;;12.68;7.72;;;;;;;;;;4995391;28;20068;-76
2022/05/03 02:02:48;;;;;;;10.18;8.13;;;;;;;;;;5017869;28;20085;-77
2022/05/03 02:05:19;;;;;;;11.18;7.75;;;;;;;;;;5002892;28;20083;-76
2022/05/03 02:07:52;;;;;;;9.88;8.85;;;;;;;;;;5011051;28;20068;-75
2022/05/03 02:10:41;;;;;;;13.10;8.27;;;;;;;;;;5022481;28;20068;-75
2022/05/03 02:13:13;;;;;;;10.55;8.23;;;;;;;;;;4992348;28;20140;-75
2022/05/03 02:15:43;;;;;;;9.30;7.57;;;;;;;;;;4999230;28;20037;-75
2022/05/03 02:18:15;;;;;;;8.63;7.72;;;;;;;;;;5000281;28;20037;-75
2022/05/03 02:20:47;;;;;;;10.02;7.50;;;;;;;;;;5000347;28;20042;-75
2022/05/03 02:23:37;;;;;;;10.00;8.60;;;7.40;99.90;;;;;;4998687;28;20089;-75
2022/05/03 02:26:09;;;;;;;9.45;7.78;;;;;;;;;;5019259;28;20446;-75
2022/05/03 02:28:38;;;;;;;9.32;8.35;;;;;;;;;;5002161;28;20370;-76
2022/05/03 02:31:06;;;;;;;8.68;7.78;;;;;;;;;;4998790;28;20053;-76
2022/05/03 02:33:45;;;;;;;9.80;7.93;;;;;;;;;;5019513;28;20049;-77
2022/05/03 02:36:15;;;;;;;13.68;8.43;;;;;;;;;;5016501;28;20045;-77
2022/05/03 02:39:01;;;;;;;13.40;8.48;;;;;;;;;;5020054;28;20045;-88
2022/05/03 02:41:31;;;;;;;8.52;7.70;;;;;;;;;;5021581;28;20493;-82
2022/05/03 02:43:58;;;;;;;9.73;8.32;;;;;;;;;;5022831;28;20123;-88
2022/05/03 02:46:24;;;;;;;12.20;9.10;;;;;;;;;;5019936;28;20072;-85
2022/05/03 02:49:00;;;;;;;9.30;8.27;;;;;;;;;;5020507;28;20045;-83
2022/05/03 02:51:29;;;;;;;11.05;8.73;;;;;;;;;;5021699;28;20503;-92
2022/05/03 02:54:00;;;;;;;9.27;8.35;;;;;;;;;;5017782;28;20049;-89
2022/05/03 02:56:35;;;;;;;11.38;8.88;;;;;;;;;;5001723;28;20073;-80
2022/05/03 02:59:01;;;;;;;8.93;8.02;;;;;;;;;;5018593;28;20120;-88
2022/05/03 03:01:48;;;;;;;9.57;8.65;;;;;;;;;;5018602;28;20170;-85
2022/05/03 03:04:14;;;;;;;12.50;8.63;;;;;;;;;;5021072;28;20148;-89
2022/05/03 03:06:42;;;;;;;10.00;9.00;;;;;;;;;;5018857;28;20083;-87
2022/05/03 03:09:09;;;;;;;11.43;9.18;;;;;;;;;;5000840;28;20026;-92
2022/05/03 03:11:53;;;;;;;12.20;9.35;;;;;;;;;;5019183;28;20053;-91
2022/05/03 03:14:22;;;;;;;11.05;9.85;;;;;;;;;;5019615;28;20056;-92
2022/05/03 03:16:55;;;;;;;9.95;9.05;;;;;;;;;;5022797;28;20033;-94
2022/05/03 03:19:40;;;;;;;15.85;9.45;;;;;;;;;;5018508;28;20289;-83
2022/05/03 03:22:09;;;;;;;11.27;10.00;;;;;;;;;;5021665;28;20044;-88
2022/05/03 03:24:36;;;;;;;10.60;9.50;;;;;;;;;;5022406;28;20053;-92
2022/05/03 03:27:03;;;;;;;10.88;9.82;;;;;;;;;;5021959;28;20447;-81
2022/05/03 03:29:31;;;;;;;16.27;10.50;;;;;;;;;;5022102;28;20045;-90
2022/05/03 03:32:01;;;;;;;10.98;9.88;;;;;;;;;;5022455;28;20033;-91
2022/05/03 03:34:28;;;;;;;14.05;9.63;;;;;;;;;;5024110;28;20041;-87
2022/05/03 03:37:01;;;;;;;10.75;9.65;;;;;;;;;;5018928;28;20045;-90
2022/05/03 03:39:30;;;;;;;11.82;10.43;;;;;;;;;;5022234;28;20073;-89
2022/05/03 03:41:59;;;;;;;11.63;10.43;;;;;;;;;;5002268;28;20042;-83
2022/05/03 03:44:25;;;;;;;12.65;10.68;;;;;;;;;;5023268;28;20037;-88
2022/05/03 03:46:51;;;;;;;12.52;11.23;;;;;;;;;;5024398;28;20053;-88
2022/05/03 03:49:17;;;;;;;11.80;10.50;;;;;;;;;;5004177;28;20041;-84
2022/05/03 03:51:44;;;;;;;13.98;11.55;;;;;;;;;;5024842;28;20564;-87
2022/05/03 03:54:10;;;;;;;15.00;11.52;;;;;;;;;;5021296;28;20077;-87
2022/05/03 03:56:43;;;;;;;12.98;11.68;;;;;;;;;;5021411;28;20094;-89
2022/05/03 03:59:09;;;;;;;14.77;11.63;;;;;;;;;;5006804;28;20037;-91
2022/05/03 04:01:35;;;;;;;16.40;11.57;;;;;;;;;;5026368;28;20049;-83
2022/05/03 04:04:03;;;;;;;13.50;11.73;;;;;;;;;;5006909;28;20080;-88
2022/05/03 04:06:29;;;;;;;21.52;12.30;;;;;;;;;;5006722;28;20126;-84
2022/05/03 04:08:55;;;;;;;14.70;12.23;;;;;;;;;;5019468;28;20058;-89
2022/05/03 04:11:21;;;;;;;13.23;11.32;;;;;;;;;;5024365;28;20163;-87
2022/05/03 04:13:47;;;;;;;14.02;11.63;;;;;;;;;;5027134;28;20038;-90
2022/05/03 04:16:13;;;;;;;12.93;11.00;;;;;;;;;;5022744;28;20074;-88
2022/05/03 04:18:44;;;;;;;15.15;12.30;;;;;;;;;;5003942;28;20034;-76
2022/05/03 04:21:14;;;;;;;15.32;12.90;;;;;;;;;;5019177;28;20041;-79
2022/05/03 04:23:40;;;;;;;15.15;13.18;;;;;;;;;;5021332;28;20037;-86
2022/05/03 04:26:06;;;;;;;14.68;13.15;;;;;;;;;;5005243;28;20049;-77
2022/05/03 04:28:32;;;;;;;14.95;13.23;;;;;;;;;;5018159;28;20041;-77
2022/05/03 04:30:58;;;;;;;14.45;12.93;;;;;;;;;;4996498;28;20033;-77
2022/05/03 04:33:24;;;;;;;14.93;13.02;;;;;;;;;;5011082;28;20033;-78
2022/05/03 04:35:50;;;;;;;15.70;13.55;;;;;;;;;;5014122;28;20030;-77
2022/05/03 04:38:16;;;;;;;15.25;13.75;;;;;;;;;;5016086;28;20095;-86
2022/05/03 04:40:42;;;;;;;16.15;13.05;;;;;;;;;;5020240;28;20033;-80
2022/05/03 04:43:08;;;;;;;17.88;15.00;;;;;;;;;;5051700;28;20025;-80
2022/05/03 04:45:34;;;;;;;15.65;14.05;;;;;;;;;;5028311;28;20472;-79
2022/05/03 04:48:00;;;;;;;16.00;14.20;;;;;;;;;;5031738;28;20438;-80
2022/05/03 04:50:26;;;;;;;16.92;14.48;;;;;;;;;;5024692;28;20355;-81
2022/05/03 04:52:52;;;;;;;18.42;15.77;;;;;;;;;;5018261;28;20104;-80
2022/05/03 04:55:18;;;;;;;18.90;15.57;;;;;;;;;;5003354;28;20046;-86
2022/05/03 04:57:44;;;;;;;16.83;14.95;;;;;;;;;;4996460;28;20115;-85
2022/05/03 05:00:11;;;;;;;18.38;15.60;;;;;;;;;;5010499;28;20045;-89
2022/05/03 05:02:37;;;;;;;22.58;16.88;;;;;;;;;;5007687;28;20055;-90
2022/05/03 05:05:04;;;;;;;19.73;17.40;;;;;;;;;;4998699;28;20045;-90
2022/05/03 05:07:30;;;;;;;22.98;18.13;;;;;;;;;;5002800;28;20465;-78
2022/05/03 05:12:40;;;;;;;24.73;18.98;;;;;;;;;;4982637;28;20091;-76
2022/05/03 05:15:06;;;;;;;24.83;19.10;;;;;;;;;;5004274;28;20554;-76
2022/05/03 05:17:36;;;;;;;24.52;18.58;;;;;;;;;;5001056;28;20042;-76
2022/05/03 05:20:02;;;;;;;21.08;18.65;;;;;;;;;;5019113;28;20078;-76
2022/05/03 05:22:28;;;;;;;24.15;19.30;;;;;;;;;;5019749;28;20501;-76
2022/05/03 05:24:54;;;;;;;25.38;20.00;;;;;;;;;;4985160;28;20477;-76
2022/05/03 05:27:20;;;;;;;26.48;21.20;;;;;;;;;;5005252;28;20050;-76
2022/05/03 05:29:46;;;;;;;27.33;21.80;;;;;;;;;;4999565;28;20413;-77
2022/05/03 05:32:12;;;;;;;29.25;21.90;;;;;;;;;;5004757;28;20045;-76
2022/05/03 05:34:38;;;;;;;30.45;22.58;;;;;;;;;;5002401;28;20049;-76
2022/05/03 05:37:04;;;;;;;29.08;22.17;;;;;;;;;;5006754;28;20444;-77
2022/05/03 05:39:31;;;;;;;31.13;22.77;;;;;;;;;;5007093;28;20056;-80
2022/05/03 05:41:59;;;;;;;31.45;24.42;;;;;;;;;;5020185;28;20046;-81
2022/05/03 05:44:25;;;;;;;36.50;18.85;;;;;;;;;;4999556;28;20094;-77
2022/05/03 05:46:52;;;;;;;34.85;18.08;;;;;;;;;;5017170;28;20045;-77
2022/05/03 05:49:18;;;;;;;25.75;9.80;;;;;;;;;;5001602;28;20398;-76
2022/05/03 05:51:45;;;;;;;24.38;8.07;;;;;;;;;;5017087;28;20046;-77
2022/05/03 05:54:11;;;;;;;34.50;8.90;;;;;;;;;;5020903;28;20076;-84
2022/05/03 05:56:37;;;;;;;28.58;7.90;;;;;;;;;;5019222;28;20436;-86
2022/05/03 05:59:04;;;;;;;26.60;6.65;;;;;;;;;;5017775;28;20142;-79
2022/05/03 06:01:37;;;;;;;19.73;6.32;;;;;;;;;;5016250;28;20041;-83
2022/05/03 06:04:03;;;;;;;17.23;5.82;;;;;;;;;;5019117;28;20064;-86
2022/05/03 06:06:29;;;;;;;19.70;6.05;;;;;;;;;;5000617;28;20770;-85
2022/05/03 06:08:55;;;;;;;12.27;5.05;;;;;;;;;;5016101;28;20041;-89
2022/05/03 06:11:21;;;;;;;25.30;6.57;;;;;;;;;;5000755;28;20135;-82
2022/05/03 06:13:47;;;;;;;25.92;5.90;;;;;;;;;;5002199;28;20037;-87
2022/05/03 06:16:15;;;;;;;23.73;6.70;;;;;;;;;;5016556;28;20635;-89
2022/05/03 06:18:41;;;;;;;21.48;6.05;;;;;;;;;;5020877;28;20409;-90
2022/05/03 06:21:07;;;;;;;21.92;6.28;;;;;;;;;;5002248;28;20044;-85
2022/05/03 06:23:37;;;;;;;19.85;7.28;;;;;;;;;;5018886;28;20124;-85
2022/05/03 06:26:05;;;;;;;18.55;6.03;;;;;;;;;;5018356;28;20044;-87
2022/05/03 06:28:31;;;;;;;19.48;6.57;;;;;;;;;;5021695;28;20063;-88
2022/05/03 06:30:57;;;;;;;31.80;7.32;;;;;;;;;;5016017;28;20060;-87
2022/05/03 06:33:23;;;;;;;20.27;6.10;;;;;;;;;;5014725;28;20179;-82
2022/05/03 06:35:50;;;;;;;29.02;7.15;;;;;;;;;;5015374;28;20041;-83
2022/05/03 06:38:16;;;;;;;21.25;6.15;;;;;;;;;;4999323;28;20168;-85
2022/05/03 06:40:42;;;;;;;14.80;5.57;;;;;;;;;;5020281;28;20038;-89
2022/05/03 06:43:08;;;;;;;23.83;6.20;;;;;;;;;;5017488;28;20067;-86
2022/05/03 06:45:34;;;;;;;30.55;7.05;;;;;;;;;;5014591;28;20045;-84
2022/05/03 06:48:00;;;;;;;28.45;6.90;;;;;;;;;;5014647;28;20065;-87
2022/05/03 06:50:27;;;;;;;28.02;8.38;;;;;;;;;;5019375;28;20049;-88
2022/05/03 06:52:53;;;;;;;21.48;6.78;;;;;;;;;;5020037;28;20060;-82
2022/05/03 06:55:19;;;;;;;24.33;7.35;;;;;;;;;;5017559;28;20045;-88
2022/05/03 06:57:45;;;;;;;29.35;7.28;;;;;;;;;;5029418;28;20076;-80
2022/05/03 07:00:11;;;;;;;30.17;6.70;;;;;;;;;;5038160;28;20034;-81
2022/05/03 07:02:38;;;;;;;18.73;5.22;;;;;;;;;;5021247;28;20021;-82
2022/05/03 07:05:05;;;;;;;25.30;5.55;;;;;;;;;;5035324;28;20591;-91
2022/05/03 07:07:31;;;;;;;22.88;4.88;;;;;;;;;;5031332;28;20038;-81
2022/05/03 07:09:59;;;;;;;23.55;4.88;;;;;;;;;;5021761;28;20096;-91
2022/05/03 07:12:25;;;;;;;21.38;5.28;;;;;;;;;;5022415;28;20038;-94
2022/05/03 07:14:51;;;;;;;26.63;6.05;;;;;;;;;;5003771;28;20049;-86
2022/05/03 07:22:51;;;;;;;23.00;4.65;;;;;;;;;;5018654;28;20136;-90
2022/05/03 07:25:17;;;;;;;21.52;4.72;;;;;;;;;;5022544;28;20532;-91
2022/05/03 07:27:45;;;;;;;23.60;5.88;;;;;;;;;;5020904;28;20196;-85
2022/05/03 07:30:13;;;;;;;24.83;4.65;;;;;;;;;;5021299;28;20130;-89
2022/05/03 07:32:40;;;;;;;16.38;3.78;;;;;;;;;;5023880;28;20038;-84
2022/05/03 07:35:06;;;;;;;17.88;4.03;;;;;;;;;;5024171;28;20489;-79
2022/05/03 07:37:32;;;;;;;25.80;4.55;;;;;;;;;;5000794;28;20038;-79
2022/05/03 07:39:59;;;;;;;16.63;3.40;;;;;;;;;;5007818;28;20041;-78
2022/05/03 07:42:25;;;;;;;19.60;3.97;;;;;;;;;;5003979;28;20102;-79
2022/05/03 07:44:51;;;;;;;16.92;4.15;;;;;;;;;;5000686;28;20049;-78
2022/05/03 07:47:18;;;;;;;34.25;5.03;;;;;;;;;;5000216;28;20440;-83
2022/05/03 07:49:44;;;;;;;22.30;5.55;;;;;;;;;;4998338;28;20045;-82
2022/05/03 07:52:10;;;;;;;30.90;4.20;;;;;;;;;;5015239;28;20050;-88
2022/05/03 07:54:40;;;;;;;13.63;3.65;;;;;;;;;;5000649;28;20049;-80
2022/05/03 07:57:06;;;;;;;22.17;3.97;;;;;;;;;;5014984;28;22031;-80
2022/05/03 07:59:33;;;;;;;24.40;4.20;;;;;;;;;;5015775;28;20109;-80
2022/05/03 08:01:59;;;;;;;23.35;3.65;;;;;;;;;;4997728;28;20057;-80
2022/05/03 08:04:25;;;;;;;19.77;3.35;;;;;;;;;;4998739;28;20041;-79
2022/05/03 08:06:52;;;;;;;17.10;3.15;;;;;;;;;;4998623;28;20033;-80
2022/05/03 08:09:18;;;;;;;26.45;3.75;;;;;;;;;;5017773;28;20049;-79
2022/05/03 08:11:44;;;;;;;14.75;4.20;;;;;;;;;;4984332;28;20376;-79
2022/05/03 08:14:10;;;;;;;12.35;3.58;;;;;;;;;;5019278;28;20065;-79
2022/05/03 08:16:38;;;;;;;15.73;3.05;;;;;;;;;;4982921;28;21620;-80
2022/05/03 08:19:04;;;;;;;17.08;3.67;;;;;;;;;;4985788;28;20073;-80
2022/05/03 08:21:32;;;;;;;20.98;3.90;;;;;;;;;;5001050;28;20049;-78
2022/05/03 08:23:59;;;;;;;19.65;3.97;;;;;;;;;;5019024;28;20046;-78
2022/05/03 08:26:25;;;;;;;12.15;2.95;;;;;;;;;;5020663;28;20049;-79
2022/05/03 08:28:51;;;;;;;22.55;4.00;;;;;;;;;;5019618;28;20084;-82
2022/05/03 08:31:18;;;;;;;13.50;3.30;;;;;;;;;;5018480;28;20047;-78
2022/05/03 08:33:44;;;;;;;17.75;2.97;;;;;;;;;;5022828;28;20128;-79
2022/05/03 08:36:10;;;;;;;15.23;3.30;;;;;;;;;;5024728;28;20037;-78
2022/05/03 08:44:19;;;;;;;16.42;2.78;;;;;;;;;;5018380;28;20532;-82
2022/05/03 08:46:46;;;;;;;28.27;3.30;;;;;;;;;;4996849;28;21835;-83
2022/05/03 08:49:17;;;;;;;15.65;2.40;;;;;;;;;;5015085;28;20083;-83
2022/05/03 08:51:44;;;;;;;15.68;3.28;;;;;;;;;;5000280;28;20049;-83
2022/05/03 08:54:10;;;;;;;12.77;2.38;;;;;;;;;;5015170;28;20042;-83
2022/05/03 08:56:37;;;;;;;16.63;3.58;;;;;;;;;;5020583;28;20041;-84
2022/05/03 08:59:03;;;;;;;16.98;2.65;;;;;;;;;;5016962;28;20121;-83
2022/05/03 09:01:29;;;;;;;16.95;3.45;;;;;;;;;;5016485;28;20046;-84
2022/05/03 09:03:56;;;;;;;12.82;3.38;;;;;;;;;;5013009;28;20089;-83
2022/05/03 09:06:40;;;;;;;14.85;3.28;;;;;;;;;;4997964;28;20183;-84
2022/05/03 09:09:09;;;;;;;13.57;2.70;;;;;;;;;;5014097;28;20038;-83
2022/05/03 09:11:50;;;;;;;12.73;2.50;;;;;;;;;;4993284;28;20132;-84
2022/05/03 09:14:36;;;;;;;15.68;2.70;;;;;;;;;;5012408;28;20167;-82
2022/05/03 09:17:05;;;;;;;9.18;2.25;;;;;;;;;;5015020;28;20050;-83
2022/05/03 09:19:32;;;;;;;17.98;3.13;;;;;;;;;;4999095;28;20052;-84
2022/05/03 09:24:57;;;;;;;16.92;2.97;;;;;;;;;;5022340;28;20053;-84
2022/05/03 09:27:24;;;;;;;13.63;2.53;;;;;;;;;;5027661;28;20053;-85
2022/05/03 09:30:04;;;;;;;14.20;2.55;;;;;;;;;;5024281;28;20463;-83
2022/05/03 09:32:35;;;;;;;12.50;2.70;;;;;;;;;;5018806;28;20092;-85
2022/05/03 09:35:04;;;;;;;18.30;2.88;;;;;;;;;;5001688;28;20033;-84
2022/05/03 09:37:41;;;;;;;21.80;3.25;;;;;;;;;;5003837;28;20120;-90
2022/05/03 09:40:25;;;;;;;15.88;2.72;;;;;;;;;;5002748;28;20049;-83
2022/05/03 09:42:55;;;;;;;18.67;3.08;;;;;;;;;;5015706;28;20132;-84
2022/05/03 09:45:33;;;;;;;10.60;3.00;;;;;;;;;;4977914;28;20065;-84
2022/05/03 09:48:00;;;;;;;11.30;3.05;;;;;;;;;;5001541;28;20190;-84
2022/05/03 09:50:43;;;;;;;14.52;2.80;;;;;;;;;;5019006;28;20120;-86
2022/05/03 09:53:19;;;;;;;11.98;2.53;;;;;;;;;;5014854;28;20034;-90
2022/05/03 09:55:47;;;;;;;10.30;2.60;;;;;;;;;;4980999;28;20733;-85
2022/05/03 09:58:14;;;;;;;12.50;2.28;;;;;;;;;;5017388;28;20045;-85
2022/05/03 10:00:46;;;;;;;21.75;3.50;;;;;;;;;;5019064;28;20040;-84
2022/05/03 10:03:14;;;;;;;14.48;3.05;;;;;;;;;;5017048;28;20041;-84
2022/05/03 10:05:41;;;;;;;11.23;2.38;;;;;;;;;;4999910;28;20116;-84
2022/05/03 10:08:10;;;;;;;17.30;2.83;;;;;;;;;;5012637;28;20057;-84
2022/05/03 10:10:39;;;;;;;10.13;2.67;;;;;;;;;;4996787;28;20072;-84
2022/05/03 10:13:08;;;;;;;17.92;3.05;;;;;;;;;;5014646;28;20508;-90
2022/05/03 10:21:16;;;;;;;9.90;2.20;;;;;;;;;;4991024;28;20049;-84
2022/05/03 10:24:00;;;;;;;8.32;2.38;;;;;;;;;;4977233;28;20057;-87
2022/05/03 10:26:45;;;;;;;12.10;2.50;;;;;;;;;;5001030;28;20258;-89
2022/05/03 10:29:13;;;;;;;12.70;2.30;;;;;;;;;;4976398;28;20413;-83
2022/05/03 10:31:53;;;;;;;10.38;2.10;;;;;;;;;;5017637;28;20084;-85
2022/05/03 10:34:38;;;;;;;11.48;2.20;;;;;;;;;;5033918;28;20068;-84
2022/05/03 10:37:04;;;;;;;11.25;2.47;;;;;;;;;;5010692;28;20065;-87
2022/05/03 10:39:30;;;;;;;9.27;1.80;;;;;;;;;;5016801;28;20094;-83
2022/05/03 10:42:07;;;;;;;7.47;1.98;;;;;;;;;;5031808;28;20038;-83
2022/05/03 10:44:52;;;;;;;7.20;2.35;;;;;;;;;;5009124;28;20042;-84
2022/05/03 10:47:19;;;;;;;16.38;3.05;;;;;;;;;;5010516;28;20056;-81
2022/05/03 10:50:10;;;;;;;6.72;1.90;;;;;;;;;;5022237;28;20130;-81
2022/05/03 10:52:36;;;;;;;9.20;2.40;;;;;;;;;;4936604;28;20059;-83
2022/05/03 10:55:06;;;;;;;8.55;2.97;;;;;;;;;;5009185;28;20065;-82
2022/05/03 10:57:32;;;;;;;6.35;1.70;;;;;;;;;;5018799;28;20517;-87
2022/05/03 10:59:58;;;;;;;9.13;1.80;;;;;;;;;;4998551;28;20586;-88
2022/05/03 11:02:24;;;;;;;8.55;2.10;;;;;;;;;;5018240;28;20552;-84
2022/05/03 11:05:09;;;;;;;10.13;2.60;;;;;;;;;;5018080;28;20088;-84
2022/05/03 11:07:41;;;;;;;10.32;1.90;;;;;;;;;;5012924;28;20114;-90
2022/05/03 11:10:35;;;;;;;9.50;2.35;;;;;;;;;;5013047;28;20245;-84
2022/05/03 11:13:01;;;;;;;8.07;2.30;;;;;;;;;;5009991;28;22190;-88
2022/05/03 11:15:28;;;;;;;3.45;1.70;;;;;;;;;;5013617;28;20041;-84
2022/05/03 11:17:55;;;;;;;5.10;1.65;;;;;;;;;;5013799;28;20750;-83
2022/05/03 11:20:22;;;;;;;6.88;1.80;;;;;;;;;;5016456;28;20498;-83
2022/05/03 11:23:10;;;;;;;11.57;2.50;;;;;;;;;;4998843;28;20109;-82
2022/05/03 11:25:48;;;;;;;11.15;2.08;;;;;;;;;;5013543;28;20046;-86
2022/05/03 11:28:18;;;;;;;11.20;2.15;;;;;;;;;;5011645;28;20061;-82
2022/05/03 11:31:02;;;;;;;8.23;1.95;;;;;;;;;;5018295;28;20061;-89
2022/05/03 11:33:28;;;;;;;10.20;2.38;;;;;;;;;;5016938;28;20059;-87
2022/05/03 11:36:00;;;;;;;17.48;4.57;;;;;;;;;;5020219;28;20068;-89
2022/05/03 11:38:26;;;;;;;13.90;4.40;;;;;;;;;;5001385;28;20393;-82
2022/05/03 11:40:59;;;;;;;12.95;3.55;;;;;;;;;;5019632;28;20049;-93
2022/05/03 11:43:25;;;;;;;7.38;2.30;;;;;;;;;;5012099;28;20052;-89
2022/05/03 11:45:52;;;;;;;15.13;3.33;;;;;;;;;;4998246;28;20048;-84
2022/05/03 11:48:18;;;;;;;11.48;2.65;;;;;;;;;;4996949;28;20061;-83
2022/05/03 11:56:23;;;;;;;12.38;3.65;;;;;;;;;;5029466;28;20064;-87
2022/05/03 11:58:50;;;;;;;20.25;3.20;;;;;;;;;;5039414;28;20041;-85
2022/05/03 12:01:16;;;;;;;10.60;2.30;;;;;;;;;;5008963;28;20072;-87
2022/05/03 12:03:58;;;;;;;13.32;4.03;;;;;;;;;;5028497;28;20481;-88
2022/05/03 12:06:54;;;;;;;17.58;5.10;;;;;;;;;;5027510;28;20062;-87
2022/05/03 12:09:20;;;;;;;13.75;3.03;;;;;;;;;;5021510;28;20177;-89
2022/05/03 12:14:42;;;;;;;17.55;4.20;;;;;;;;;;5028288;28;20092;-84
2022/05/03 12:17:09;;;;;;;12.98;2.80;;;;;;;;;;5013425;28;20102;-85
2022/05/03 12:19:35;;;;;;;16.35;2.72;;;;;;;;;;5028231;28;20033;-87
2022/05/03 12:22:15;;;;;;;17.38;3.85;;;;;;;;;;5027933;28;20116;-86
2022/05/03 12:24:42;;;;;;;13.00;3.25;;;;;;;;;;5027829;28;20057;-88
2022/05/03 12:27:15;;;;;;;18.60;3.88;;;;;;;;;;5027436;28;20420;-84
2022/05/03 12:29:45;;;;;;;14.43;3.20;;;;;;;;;;5026057;28;20524;-85
2022/05/03 12:32:18;;;;;;;12.25;2.78;;;;;;;;;;5027244;28;20416;-82
2022/05/03 12:34:58;;;;;;;18.60;3.35;;;;;;;;;;5026189;28;20050;-84
2022/05/03 12:37:24;;;;;;;18.83;3.65;;;;;;;;;;5028055;28;20505;-83
2022/05/03 12:39:50;;;;;;;12.68;3.08;;;;;;;;;;5027771;28;20037;-82
2022/05/03 12:42:17;;;;;;;18.30;3.10;;;;;;;;;;5010380;28;20517;-81
2022/05/03 12:44:52;;;;;;;10.93;2.63;;;;;;;;;;5024289;28;20052;-81
2022/05/03 12:47:18;;;;;;;14.00;2.63;;;;;;;;;;5020810;28;20422;-84
2022/05/03 12:49:44;;;;;;;12.90;3.42;;;;;;;;;;5023371;28;20076;-86
2022/05/03 12:52:10;;;;;;;14.60;3.13;;;;;;;;;;5009303;28;20033;-84
2022/05/03 12:54:40;;;;;;;11.00;3.08;;;;;;;;;;5031221;28;20152;-84
2022/05/03 12:59:52;;;;;;;10.93;2.50;;;;;;;;;;5025133;28;20140;-88
2022/05/03 13:02:27;;;;;;;17.63;2.95;;;;;;;;;;5026614;28;20054;-82
2022/05/03 13:04:56;;;;;;;15.65;3.00;;;;;;;;;;5008181;28;20123;-86
2022/05/03 13:07:22;;;;;;;14.85;3.15;;;;;;;;;;5025541;28;20052;-85
2022/05/03 13:09:48;;;;;;;18.52;3.08;;;;;;;;;;5031985;28;20050;-83
2022/05/03 13:12:15;;;;;;;16.98;2.63;;;;;;;;;;5024949;28;20041;-87
2022/05/03 13:14:41;;;;;;;8.93;2.72;;;;;;;;;;5025433;28;20033;-83
2022/05/03 13:17:09;;;;;;;10.68;2.38;;;;;;;;;;5024998;28;20033;-83
2022/05/03 13:19:35;;;;;;;12.00;2.83;;;;;;;;;;5025785;28;20057;-83
2022/05/03 13:22:02;;;;;;;13.43;3.05;;;;;;;;;;5026508;28;20033;-89
2022/05/03 13:24:28;;;;;;;15.38;3.00;;;;;;;;;;5020179;22;20054;-83
2022/05/03 13:26:54;;;;;;;10.48;2.85;;;;;;;;;;4984815;28;20052;-83
2022/05/03 13:29:21;;;;;;;12.88;2.63;;;;;;;;;;5002443;28;20054;-86
2022/05/03 13:31:47;;;;;;;12.32;2.67;;;;;;;;;;4997143;28;20075;-84
2022/05/03 13:34:14;;;;;;;15.07;3.42;;;;;;;;;;5005974;28;20410;-84
2022/05/03 13:42:10;;;;;;;12.60;2.85;;;;;;;;;;5001319;28;20136;-84
2022/05/03 13:44:37;;;;;;;9.68;3.83;;;;;;;;;;5004346;28;20474;-83
2022/05/03 13:47:04;;;;;;;16.05;3.13;;;;;;;;;;4973431;28;20372;-84
2022/05/03 13:50:06;;;;;;;;;;;;;;;;;;;;;
2022/05/03 13:52:57;;;;;;;11.88;3.00;;;;;;;;;;5038678;28;20170;-86
2022/05/03 13:55:23;;;;;;;12.30;2.55;;;;;;;;;;5024943;28;20045;-82
2022/05/03 13:57:50;;;;;;;11.55;2.20;;;;;;;;;;5064153;28;20048;-84
2022/05/03 14:00:17;;;;;;;10.65;2.90;;;;;;;;;;5044395;28;20037;-84
2022/05/03 14:03:07;;;;;;;12.48;2.40;;;;;;;;;;5048721;28;20052;-82
2022/05/03 14:05:30;;;;;;;11.77;2.80;;;;;;;;;;5043204;28;20049;-85
2022/05/03 14:07:57;;;;;;;11.20;2.47;;;;;;;;;;5044797;28;20060;-86
2022/05/03 14:10:23;;;;;;;16.27;2.47;;;;;;;;;;5039088;28;20591;-86
2022/05/03 14:12:49;;;;;;;15.80;3.38;;;;;;;;;;5043943;28;20036;-89
2022/05/03 14:15:16;;;;;;;11.48;2.75;;;;;;;;;;5037123;28;20068;-90
2022/05/03 14:17:42;;;;;;;13.43;2.67;;;;;;;;;;5042840;28;20051;-88
2022/05/03 14:20:08;;;;;;;9.13;3.33;;;;;;;;;;5039662;28;20083;-86
2022/05/03 14:22:36;;;;;;;11.88;2.80;;;;;;;;;;5052349;28;20048;-85
2022/05/03 14:25:03;;;;;;;14.13;2.25;;;;;;;;;;5038010;28;20467;-86
2022/05/03 14:27:38;;;;;;;14.40;2.63;;;;;;;;;;5035907;28;20124;-92
2022/05/03 14:30:05;;;;;;;14.45;2.80;;;;;;;;;;5039655;28;20058;-89
2022/05/03 14:32:31;;;;;;;9.50;2.55;;;;;;;;;;5043523;28;20607;-90
2022/05/03 14:34:58;;;;;;;14.48;2.72;;;;;;;;;;5039093;28;20032;-87
2022/05/03 14:37:27;;;;;;;11.88;2.70;;;;;;;;;;5039000;28;20040;-88
2022/05/03 14:39:54;;;;;;;10.60;2.80;;;;;;;;;;5043811;28;20049;-86
2022/05/03 14:42:20;;;;;;;10.30;2.38;;;;;;;;;;5041948;28;20124;-82
2022/05/03 14:44:46;;;;;;;10.40;3.05;;;;;;;;;;5040853;28;20041;-83
2022/05/03 14:47:12;;;;;;;11.07;3.00;;;;;;;;;;5039413;28;20087;-85
2022/05/03 14:49:41;;;;;;;5.93;2.00;;;;;;;;;;5037435;28;20099;-83
2022/05/03 14:52:14;;;;;;;10.07;2.60;;;;;;;;;;5036011;28;20052;-85
2022/05/03 14:54:41;;;;;;;12.00;2.25;;;;;;;;;;5020434;28;20033;-84
2022/05/03 15:03:04;;;;;;;19.75;3.00;;;;;;;;;;5037529;28;20127;-85
2022/05/03 15:06:09;;;;;;;12.55;2.65;;;;;;;;;;5043345;28;21104;-84
2022/05/03 15:08:35;;;;;;;12.32;2.70;;;;;;;;;;4966148;28;20046;-83
2022/05/03 15:11:01;;;;;;;12.73;3.10;;;;;;;;;;4967334;28;20046;-84
2022/05/03 15:13:27;;;;;;;16.80;2.90;;;;;;;;;;5021637;28;20098;-83
2022/05/03 15:15:53;;;;;;;17.77;2.75;;;;;;;;;;5053839;28;20040;-83
2022/05/03 15:18:20;;;;;;;14.65;2.55;;;;;;;;;;5057208;28;20108;-83
2022/05/03 15:20:46;;;;;;;16.52;3.28;;;;;;;;;;5012938;28;20040;-84
2022/05/03 15:26:12;;;;;;;12.55;2.50;;;;;;;;;;5034269;28;20056;-93
2022/05/03 15:28:39;;;;;;;12.23;2.75;;;;;;;;;;5045302;28;20033;-93
2022/05/03 15:31:05;;;;;;;13.77;2.42;;;;;;;;;;5043142;28;20057;-90
2022/05/03 15:33:31;;;;;;;15.85;2.80;;;;;;;;;;5050691;28;20503;-86
2022/05/03 15:35:57;;;;;;;16.38;3.00;;;;;;;;;;5047329;28;20048;-92
2022/05/03 15:38:35;;;;;;;13.00;3.17;;;;;;;;;;5042500;28;20033;-91
2022/05/03 15:41:02;;;;;;;11.63;3.22;;;;;;;;;;5050964;28;20041;-88